sensor_id;sensor_type;location;lat;lon;timestamp;temperature;humidity
37678;DHT22;23517;50.390;8.616;2024-03-08T00:00:10;2.80;99.90
37678;DHT22;23517;50.390;8.616;2024-03-08T00:02:44;2.80;99.90
37678;DHT22;23517;50.390;8.616;2024-03-08T00:05:12;2.70;99.90
37678;DHT22;23517;50.390;8.616;2024-03-08T00:07:41;2.60;99.90
37678;DHT22;23517;50.390;8.616;2024-03-08T00:10:10;2.60;99.90
37678;DHT22;23517;50.390;8.616;2024-03-08T00:12:45;2.50;99.90
37678;DHT22;23517;50.390;8.616;2024-03-08T00:15:16;2.50;99.90
37678;DHT22;23517;50.390;8.616;2024-03-08T00:17:47;2.50;99.90
37678;DHT22;23517;50.390;8.616;2024-03-08T00:20:16;2.40;99.90
37678;DHT22;23517;50.390;8.616;2024-03-08T00:22:45;2.40;99.90
37678;DHT22;23517;50.390;8.616;2024-03-08T00:25:12;2.30;99.90
37678;DHT22;23517;50.390;8.616;2024-03-08T00:27:39;2.30;99.90
37678;DHT22;23517;50.390;8.616;2024-03-08T00:30:07;2.30;99.90
37678;DHT22;23517;50.390;8.616;2024-03-08T00:32:35;2.20;99.90
37678;DHT22;23517;50.390;8.616;2024-03-08T00:35:03;2.20;99.90
37678;DHT22;23517;50.390;8.616;2024-03-08T00:37:30;2.30;99.90
37678;DHT22;23517;50.390;8.616;2024-03-08T00:39:57;2.20;99.90
37678;DHT22;23517;50.390;8.616;2024-03-08T00:42:24;2.30;99.90
37678;DHT22;23517;50.390;8.616;2024-03-08T00:44:51;2.30;99.90
37678;DHT22;23517;50.390;8.616;2024-03-08T00:47:18;2.30;99.90
37678;DHT22;23517;50.390;8.616;2024-03-08T00:49:46;2.30;99.90
37678;DHT22;23517;50.390;8.616;2024-03-08T00:52:13;2.30;99.90
37678;DHT22;23517;50.390;8.616;2024-03-08T00:54:40;2.30;99.90
37678;DHT22;23517;50.390;8.616;2024-03-08T00:57:07;2.30;99.90
37678;DHT22;23517;50.390;8.616;2024-03-08T00:59:34;2.30;99.90
37678;DHT22;23517;50.390;8.616;2024-03-08T01:02:01;2.30;99.90
37678;DHT22;23517;50.390;8.616;2024-03-08T01:04:29;2.20;99.90
37678;DHT22;23517;50.390;8.616;2024-03-08T01:06:56;2.20;99.90
37678;DHT22;23517;50.390;8.616;2024-03-08T01:09:24;2.20;99.90
37678;DHT22;23517;50.390;8.616;2024-03-08T01:11:51;2.20;99.90
37678;DHT22;23517;50.390;8.616;2024-03-08T01:14:19;2.20;99.90
37678;DHT22;23517;50.390;8.616;2024-03-08T01:16:49;2.10;99.90
37678;DHT22;23517;50.390;8.616;2024-03-08T01:19:19;2.10;99.90
37678;DHT22;23517;50.390;8.616;2024-03-08T01:21:46;2.10;99.90
37678;DHT22;23517;50.390;8.616;2024-03-08T01:24:13;2.10;1.00
37678;DHT22;23517;50.390;8.616;2024-03-08T01:26:39;2.10;1.00
37678;DHT22;23517;50.390;8.616;2024-03-08T01:29:06;2.10;1.00
37678;DHT22;23517;50.390;8.616;2024-03-08T01:31:34;1.70;1.00
37678;DHT22;23517;50.390;8.616;2024-03-08T01:34:03;2.00;1.00
37678;DHT22;23517;50.390;8.616;2024-03-08T01:36:29;2.00;1.00
37678;DHT22;23517;50.390;8.616;2024-03-08T01:38:56;1.90;1.00
37678;DHT22;23517;50.390;8.616;2024-03-08T01:41:24;1.90;1.00
37678;DHT22;23517;50.390;8.616;2024-03-08T01:43:51;1.90;1.00
37678;DHT22;23517;50.390;8.616;2024-03-08T01:46:20;1.80;1.00
37678;DHT22;23517;50.390;8.616;2024-03-08T01:48:51;1.80;1.00
37678;DHT22;23517;50.390;8.616;2024-03-08T01:51:18;1.70;1.00
37678;DHT22;23517;50.390;8.616;2024-03-08T01:53:46;1.70;1.00
37678;DHT22;23517;50.390;8.616;2024-03-08T01:56:14;1.60;1.00
37678;DHT22;23517;50.390;8.616;2024-03-08T01:58:42;1.70;1.00
37678;DHT22;23517;50.390;8.616;2024-03-08T02:01:12;1.70;1.00
37678;DHT22;23517;50.390;8.616;2024-03-08T02:03:42;1.70;1.00
37678;DHT22;23517;50.390;8.616;2024-03-08T02:06:13;1.70;1.00
37678;DHT22;23517;50.390;8.616;2024-03-08T02:08:43;1.70;1.00
37678;DHT22;23517;50.390;8.616;2024-03-08T02:11:16;1.70;1.00
37678;DHT22;23517;50.390;8.616;2024-03-08T02:13:45;1.70;1.00
37678;DHT22;23517;50.390;8.616;2024-03-08T02:16:12;1.70;1.00
37678;DHT22;23517;50.390;8.616;2024-03-08T02:18:38;1.70;1.00
37678;DHT22;23517;50.390;8.616;2024-03-08T02:21:07;1.60;1.00
37678;DHT22;23517;50.390;8.616;2024-03-08T02:23:35;1.60;1.00
37678;DHT22;23517;50.390;8.616;2024-03-08T02:26:02;1.60;1.00
37678;DHT22;23517;50.390;8.616;2024-03-08T02:28:31;1.60;1.00
37678;DHT22;23517;50.390;8.616;2024-03-08T02:30:57;1.60;1.00
37678;DHT22;23517;50.390;8.616;2024-03-08T02:33:26;1.60;1.00
37678;DHT22;23517;50.390;8.616;2024-03-08T02:35:55;1.50;1.00
37678;DHT22;23517;50.390;8.616;2024-03-08T02:38:25;1.50;1.00
37678;DHT22;23517;50.390;8.616;2024-03-08T02:40:53;1.50;1.00
37678;DHT22;23517;50.390;8.616;2024-03-08T02:43:22;1.50;1.00
37678;DHT22;23517;50.390;8.616;2024-03-08T02:45:50;1.50;1.00
37678;DHT22;23517;50.390;8.616;2024-03-08T02:48:19;1.50;1.00
37678;DHT22;23517;50.390;8.616;2024-03-08T02:50:47;1.40;1.00
37678;DHT22;23517;50.390;8.616;2024-03-08T02:53:14;1.40;1.00
37678;DHT22;23517;50.390;8.616;2024-03-08T02:55:41;1.50;1.00
37678;DHT22;23517;50.390;8.616;2024-03-08T02:58:09;1.50;1.00
37678;DHT22;23517;50.390;8.616;2024-03-08T03:00:38;1.50;1.00
37678;DHT22;23517;50.390;8.616;2024-03-08T03:03:08;1.50;1.00
37678;DHT22;23517;50.390;8.616;2024-03-08T03:05:35;1.50;1.00
37678;DHT22;23517;50.390;8.616;2024-03-08T03:08:02;1.50;1.00
37678;DHT22;23517;50.390;8.616;2024-03-08T03:10:36;1.50;1.00
37678;DHT22;23517;50.390;8.616;2024-03-08T03:13:03;1.50;1.00
37678;DHT22;23517;50.390;8.616;2024-03-08T03:15:34;1.50;1.00
37678;DHT22;23517;50.390;8.616;2024-03-08T03:18:01;1.60;1.00
37678;DHT22;23517;50.390;8.616;2024-03-08T03:20:29;1.60;1.00
37678;DHT22;23517;50.390;8.616;2024-03-08T03:23:07;1.60;1.00
37678;DHT22;23517;50.390;8.616;2024-03-08T03:25:35;1.50;1.00
37678;DHT22;23517;50.390;8.616;2024-03-08T03:28:03;1.50;1.00
37678;DHT22;23517;50.390;8.616;2024-03-08T03:30:33;1.50;1.00
37678;DHT22;23517;50.390;8.616;2024-03-08T03:33:01;1.50;1.00
37678;DHT22;23517;50.390;8.616;2024-03-08T03:35:33;1.40;1.00
37678;DHT22;23517;50.390;8.616;2024-03-08T03:38:00;1.40;1.00
37678;DHT22;23517;50.390;8.616;2024-03-08T03:40:36;1.40;1.00
37678;DHT22;23517;50.390;8.616;2024-03-08T03:43:04;1.40;1.00
37678;DHT22;23517;50.390;8.616;2024-03-08T03:45:31;1.30;1.00
37678;DHT22;23517;50.390;8.616;2024-03-08T03:48:06;1.30;1.00
37678;DHT22;23517;50.390;8.616;2024-03-08T03:50:37;1.30;1.00
37678;DHT22;23517;50.390;8.616;2024-03-08T03:53:04;1.30;1.00
37678;DHT22;23517;50.390;8.616;2024-03-08T03:55:38;1.30;1.00
37678;DHT22;23517;50.390;8.616;2024-03-08T03:58:08;1.20;4.60
37678;DHT22;23517;50.390;8.616;2024-03-08T04:00:36;1.20;13.70
37678;DHT22;23517;50.390;8.616;2024-03-08T04:03:03;1.20;30.00
37678;DHT22;23517;50.390;8.616;2024-03-08T04:05:30;1.20;30.60
37678;DHT22;23517;50.390;8.616;2024-03-08T04:07:57;1.20;29.20
37678;DHT22;23517;50.390;8.616;2024-03-08T04:10:24;1.20;16.70
37678;DHT22;23517;50.390;8.616;2024-03-08T04:12:51;1.20;20.60
37678;DHT22;23517;50.390;8.616;2024-03-08T04:15:18;1.20;25.30
37678;DHT22;23517;50.390;8.616;2024-03-08T04:17:45;1.20;16.50
37678;DHT22;23517;50.390;8.616;2024-03-08T04:20:13;1.20;51.40
37678;DHT22;23517;50.390;8.616;2024-03-08T04:22:41;1.20;55.70
37678;DHT22;23517;50.390;8.616;2024-03-08T04:25:08;1.20;78.40
37678;DHT22;23517;50.390;8.616;2024-03-08T04:27:36;1.20;99.90
37678;DHT22;23517;50.390;8.616;2024-03-08T04:30:03;1.10;99.90
37678;DHT22;23517;50.390;8.616;2024-03-08T04:32:30;1.10;99.90
37678;DHT22;23517;50.390;8.616;2024-03-08T04:34:59;1.10;99.90
37678;DHT22;23517;50.390;8.616;2024-03-08T04:37:27;1.00;99.90
37678;DHT22;23517;50.390;8.616;2024-03-08T04:39:56;1.00;99.90
37678;DHT22;23517;50.390;8.616;2024-03-08T04:42:24;1.00;99.90
37678;DHT22;23517;50.390;8.616;2024-03-08T04:44:51;1.00;99.90
37678;DHT22;23517;50.390;8.616;2024-03-08T04:47:20;1.00;99.90
37678;DHT22;23517;50.390;8.616;2024-03-08T04:49:47;0.90;99.90
37678;DHT22;23517;50.390;8.616;2024-03-08T04:52:13;0.90;99.90
37678;DHT22;23517;50.390;8.616;2024-03-08T04:54:40;0.80;99.90
37678;DHT22;23517;50.390;8.616;2024-03-08T04:57:07;0.80;99.90
37678;DHT22;23517;50.390;8.616;2024-03-08T04:59:35;0.70;99.90
37678;DHT22;23517;50.390;8.616;2024-03-08T05:02:03;0.60;99.90
37678;DHT22;23517;50.390;8.616;2024-03-08T05:04:30;0.60;99.90
37678;DHT22;23517;50.390;8.616;2024-03-08T05:06:56;0.50;99.90
37678;DHT22;23517;50.390;8.616;2024-03-08T05:09:23;0.50;99.90
37678;DHT22;23517;50.390;8.616;2024-03-08T05:11:50;0.50;99.90
37678;DHT22;23517;50.390;8.616;2024-03-08T05:14:17;0.40;99.90
37678;DHT22;23517;50.390;8.616;2024-03-08T05:16:47;0.40;99.90
37678;DHT22;23517;50.390;8.616;2024-03-08T05:19:17;0.40;99.90
37678;DHT22;23517;50.390;8.616;2024-03-08T05:21:47;0.30;99.90
37678;DHT22;23517;50.390;8.616;2024-03-08T05:24:15;0.30;99.90
37678;DHT22;23517;50.390;8.616;2024-03-08T05:26:43;0.20;99.90
37678;DHT22;23517;50.390;8.616;2024-03-08T05:29:11;0.20;1.00
37678;DHT22;23517;50.390;8.616;2024-03-08T05:31:49;0.20;99.90
37678;DHT22;23517;50.390;8.616;2024-03-08T05:34:17;0.10;99.90
37678;DHT22;23517;50.390;8.616;2024-03-08T05:36:44;0.10;1.00
37678;DHT22;23517;50.390;8.616;2024-03-08T05:39:12;0.10;1.00
37678;DHT22;23517;50.390;8.616;2024-03-08T05:41:39;0.00;1.00
37678;DHT22;23517;50.390;8.616;2024-03-08T05:44:07;0.00;1.00
37678;DHT22;23517;50.390;8.616;2024-03-08T05:46:35;0.00;1.00
37678;DHT22;23517;50.390;8.616;2024-03-08T05:49:07;0.00;1.00
37678;DHT22;23517;50.390;8.616;2024-03-08T05:51:38;-0.10;1.00
37678;DHT22;23517;50.390;8.616;2024-03-08T05:54:07;-0.10;1.00
37678;DHT22;23517;50.390;8.616;2024-03-08T05:56:37;-0.10;1.00
37678;DHT22;23517;50.390;8.616;2024-03-08T05:59:05;-0.10;1.00
37678;DHT22;23517;50.390;8.616;2024-03-08T06:01:32;-0.10;1.00
37678;DHT22;23517;50.390;8.616;2024-03-08T06:04:03;-0.10;1.00
37678;DHT22;23517;50.390;8.616;2024-03-08T06:06:30;-0.10;1.00
37678;DHT22;23517;50.390;8.616;2024-03-08T06:08:57;-0.10;1.00
37678;DHT22;23517;50.390;8.616;2024-03-08T06:11:25;-0.10;1.00
37678;DHT22;23517;50.390;8.616;2024-03-08T06:13:57;0.00;1.00
37678;DHT22;23517;50.390;8.616;2024-03-08T06:16:27;-0.10;1.00
37678;DHT22;23517;50.390;8.616;2024-03-08T06:18:57;0.00;1.00
37678;DHT22;23517;50.390;8.616;2024-03-08T06:21:24;0.10;1.00
37678;DHT22;23517;50.390;8.616;2024-03-08T06:23:54;0.10;1.00
37678;DHT22;23517;50.390;8.616;2024-03-08T06:26:22;0.10;1.00
37678;DHT22;23517;50.390;8.616;2024-03-08T06:28:48;0.20;1.00
37678;DHT22;23517;50.390;8.616;2024-03-08T06:31:15;0.30;1.00
37678;DHT22;23517;50.390;8.616;2024-03-08T06:33:42;0.30;1.00
37678;DHT22;23517;50.390;8.616;2024-03-08T06:36:09;0.40;1.00
37678;DHT22;23517;50.390;8.616;2024-03-08T06:38:38;0.50;99.90
37678;DHT22;23517;50.390;8.616;2024-03-08T06:41:09;0.50;99.90
37678;DHT22;23517;50.390;8.616;2024-03-08T06:43:45;0.60;99.90
37678;DHT22;23517;50.390;8.616;2024-03-08T06:46:14;0.70;99.90
37678;DHT22;23517;50.390;8.616;2024-03-08T06:48:42;0.80;99.90
37678;DHT22;23517;50.390;8.616;2024-03-08T06:51:09;0.90;99.90
37678;DHT22;23517;50.390;8.616;2024-03-08T06:53:37;1.00;99.90
37678;DHT22;23517;50.390;8.616;2024-03-08T06:56:05;1.10;99.90
37678;DHT22;23517;50.390;8.616;2024-03-08T06:58:32;1.20;85.30
37678;DHT22;23517;50.390;8.616;2024-03-08T07:00:59;1.30;50.40
37678;DHT22;23517;50.390;8.616;2024-03-08T07:03:27;1.40;30.80
37678;DHT22;23517;50.390;8.616;2024-03-08T07:05:56;1.50;29.00
37678;DHT22;23517;50.390;8.616;2024-03-08T07:10:54;1.90;1.00
37678;DHT22;23517;50.390;8.616;2024-03-08T07:13:21;2.00;1.00
37678;DHT22;23517;50.390;8.616;2024-03-08T07:15:48;2.20;1.00
37678;DHT22;23517;50.390;8.616;2024-03-08T07:18:15;2.40;1.00
37678;DHT22;23517;50.390;8.616;2024-03-08T07:20:42;2.60;1.00
37678;DHT22;23517;50.390;8.616;2024-03-08T07:23:12;2.80;1.00
37678;DHT22;23517;50.390;8.616;2024-03-08T07:25:59;3.00;1.00
37678;DHT22;23517;50.390;8.616;2024-03-08T07:28:27;3.20;1.00
37678;DHT22;23517;50.390;8.616;2024-03-08T07:31:00;3.30;1.00
37678;DHT22;23517;50.390;8.616;2024-03-08T07:33:49;3.50;1.00
37678;DHT22;23517;50.390;8.616;2024-03-08T07:36:17;3.60;1.00
37678;DHT22;23517;50.390;8.616;2024-03-08T07:38:44;3.80;99.90
37678;DHT22;23517;50.390;8.616;2024-03-08T07:41:15;3.90;99.90
37678;DHT22;23517;50.390;8.616;2024-03-08T07:43:42;4.10;99.90
37678;DHT22;23517;50.390;8.616;2024-03-08T07:46:11;4.20;99.90
37678;DHT22;23517;50.390;8.616;2024-03-08T07:48:38;4.40;99.90
37678;DHT22;23517;50.390;8.616;2024-03-08T07:51:06;4.50;99.90
37678;DHT22;23517;50.390;8.616;2024-03-08T07:53:36;4.80;99.90
37678;DHT22;23517;50.390;8.616;2024-03-08T07:56:02;5.40;99.90
37678;DHT22;23517;50.390;8.616;2024-03-08T07:58:31;8.10;99.90
37678;DHT22;23517;50.390;8.616;2024-03-08T08:01:00;10.80;1.00
37678;DHT22;23517;50.390;8.616;2024-03-08T08:03:27;13.50;1.00
37678;DHT22;23517;50.390;8.616;2024-03-08T08:05:54;15.40;1.00
37678;DHT22;23517;50.390;8.616;2024-03-08T08:08:21;16.60;1.00
37678;DHT22;23517;50.390;8.616;2024-03-08T08:10:47;18.10;1.00
37678;DHT22;23517;50.390;8.616;2024-03-08T08:13:14;18.70;1.00
37678;DHT22;23517;50.390;8.616;2024-03-08T08:15:42;19.40;1.00
37678;DHT22;23517;50.390;8.616;2024-03-08T08:18:09;20.30;1.00
37678;DHT22;23517;50.390;8.616;2024-03-08T08:20:36;21.00;1.00
37678;DHT22;23517;50.390;8.616;2024-03-08T08:23:04;21.70;1.00
37678;DHT22;23517;50.390;8.616;2024-03-08T08:25:30;21.30;1.00
37678;DHT22;23517;50.390;8.616;2024-03-08T08:27:57;21.50;1.00
37678;DHT22;23517;50.390;8.616;2024-03-08T08:30:24;21.60;1.00
37678;DHT22;23517;50.390;8.616;2024-03-08T08:32:51;21.80;1.00
37678;DHT22;23517;50.390;8.616;2024-03-08T08:35:18;21.90;1.00
37678;DHT22;23517;50.390;8.616;2024-03-08T08:37:46;21.60;1.00
37678;DHT22;23517;50.390;8.616;2024-03-08T08:40:13;21.90;1.00
37678;DHT22;23517;50.390;8.616;2024-03-08T08:42:44;21.40;1.00
37678;DHT22;23517;50.390;8.616;2024-03-08T08:45:15;21.60;1.00
37678;DHT22;23517;50.390;8.616;2024-03-08T08:47:47;21.40;99.90
37678;DHT22;23517;50.390;8.616;2024-03-08T08:50:16;21.50;99.90
37678;DHT22;23517;50.390;8.616;2024-03-08T08:52:49;21.80;1.00
37678;DHT22;23517;50.390;8.616;2024-03-08T08:55:16;21.50;1.00
37678;DHT22;23517;50.390;8.616;2024-03-08T08:57:47;22.20;1.00
37678;DHT22;23517;50.390;8.616;2024-03-08T09:00:15;22.40;1.00
37678;DHT22;23517;50.390;8.616;2024-03-08T09:02:42;22.50;99.90
37678;DHT22;23517;50.390;8.616;2024-03-08T09:05:09;21.80;99.90
37678;DHT22;23517;50.390;8.616;2024-03-08T09:07:37;18.40;1.00
37678;DHT22;23517;50.390;8.616;2024-03-08T09:10:06;16.90;99.90
37678;DHT22;23517;50.390;8.616;2024-03-08T09:12:44;17.60;99.90
37678;DHT22;23517;50.390;8.616;2024-03-08T09:15:11;18.80;99.90
37678;DHT22;23517;50.390;8.616;2024-03-08T09:17:40;20.20;1.00
37678;DHT22;23517;50.390;8.616;2024-03-08T09:20:08;21.00;99.90
37678;DHT22;23517;50.390;8.616;2024-03-08T09:22:36;21.70;1.00
37678;DHT22;23517;50.390;8.616;2024-03-08T09:25:04;22.40;99.90
37678;DHT22;23517;50.390;8.616;2024-03-08T09:27:32;23.00;99.90
37678;DHT22;23517;50.390;8.616;2024-03-08T09:30:00;24.10;99.90
37678;DHT22;23517;50.390;8.616;2024-03-08T09:32:27;24.20;99.90
37678;DHT22;23517;50.390;8.616;2024-03-08T09:34:54;25.00;99.90
37678;DHT22;23517;50.390;8.616;2024-03-08T09:37:22;24.80;99.90
37678;DHT22;23517;50.390;8.616;2024-03-08T09:39:49;25.00;99.90
37678;DHT22;23517;50.390;8.616;2024-03-08T09:42:16;25.10;99.90
37678;DHT22;23517;50.390;8.616;2024-03-08T09:44:46;24.40;99.90
37678;DHT22;23517;50.390;8.616;2024-03-08T09:47:14;24.10;99.90
37678;DHT22;23517;50.390;8.616;2024-03-08T09:49:42;23.40;99.90
37678;DHT22;23517;50.390;8.616;2024-03-08T09:52:10;23.50;99.90
37678;DHT22;23517;50.390;8.616;2024-03-08T09:54:39;23.50;99.90
37678;DHT22;23517;50.390;8.616;2024-03-08T09:57:06;24.10;99.90
37678;DHT22;23517;50.390;8.616;2024-03-08T09:59:35;24.60;99.90
37678;DHT22;23517;50.390;8.616;2024-03-08T10:02:02;24.20;99.90
37678;DHT22;23517;50.390;8.616;2024-03-08T10:04:29;23.40;1.00
37678;DHT22;23517;50.390;8.616;2024-03-08T10:07:03;22.70;99.90
37678;DHT22;23517;50.390;8.616;2024-03-08T10:09:30;22.70;99.90
37678;DHT22;23517;50.390;8.616;2024-03-08T10:11:57;23.10;1.00
37678;DHT22;23517;50.390;8.616;2024-03-08T10:14:25;22.90;99.90
37678;DHT22;23517;50.390;8.616;2024-03-08T10:16:55;23.80;99.90
37678;DHT22;23517;50.390;8.616;2024-03-08T10:19:27;23.90;99.90
37678;DHT22;23517;50.390;8.616;2024-03-08T10:21:56;22.70;99.90
37678;DHT22;23517;50.390;8.616;2024-03-08T10:24:25;23.00;99.90
37678;DHT22;23517;50.390;8.616;2024-03-08T10:27:02;23.20;99.90
37678;DHT22;23517;50.390;8.616;2024-03-08T10:29:33;23.80;1.40
37678;DHT22;23517;50.390;8.616;2024-03-08T10:32:01;22.10;99.90
37678;DHT22;23517;50.390;8.616;2024-03-08T10:34:29;18.60;1.00
37678;DHT22;23517;50.390;8.616;2024-03-08T10:37:01;16.10;1.00
37678;DHT22;23517;50.390;8.616;2024-03-08T10:39:35;14.50;99.90
37678;DHT22;23517;50.390;8.616;2024-03-08T10:42:04;13.30;1.40
37678;DHT22;23517;50.390;8.616;2024-03-08T10:44:43;12.20;99.90
37678;DHT22;23517;50.390;8.616;2024-03-08T10:47:26;11.60;1.00
37678;DHT22;23517;50.390;8.616;2024-03-08T10:50:24;10.90;1.00
37678;DHT22;23517;50.390;8.616;2024-03-08T10:52:52;10.60;99.90
37678;DHT22;23517;50.390;8.616;2024-03-08T10:55:19;10.30;1.00
37678;DHT22;23517;50.390;8.616;2024-03-08T10:57:52;10.20;99.90
37678;DHT22;23517;50.390;8.616;2024-03-08T11:00:20;10.00;99.90
37678;DHT22;23517;50.390;8.616;2024-03-08T11:02:56;10.00;99.90
37678;DHT22;23517;50.390;8.616;2024-03-08T11:05:40;10.10;1.00
37678;DHT22;23517;50.390;8.616;2024-03-08T11:08:19;10.10;1.00
37678;DHT22;23517;50.390;8.616;2024-03-08T11:10:50;10.10;1.00
37678;DHT22;23517;50.390;8.616;2024-03-08T11:13:37;10.20;99.90
37678;DHT22;23517;50.390;8.616;2024-03-08T11:16:12;10.40;1.00
37678;DHT22;23517;50.390;8.616;2024-03-08T11:22:01;10.00;1.00
37678;DHT22;23517;50.390;8.616;2024-03-08T11:24:37;10.10;1.00
37678;DHT22;23517;50.390;8.616;2024-03-08T11:27:07;10.20;1.00
37678;DHT22;23517;50.390;8.616;2024-03-08T11:29:34;10.10;1.00
37678;DHT22;23517;50.390;8.616;2024-03-08T11:32:14;10.10;1.00
37678;DHT22;23517;50.390;8.616;2024-03-08T11:34:45;9.80;1.00
37678;DHT22;23517;50.390;8.616;2024-03-08T11:37:15;9.70;1.00
37678;DHT22;23517;50.390;8.616;2024-03-08T11:39:48;9.60;1.00
37678;DHT22;23517;50.390;8.616;2024-03-08T11:42:19;9.70;1.00
37678;DHT22;23517;50.390;8.616;2024-03-08T11:44:47;10.00;1.00
37678;DHT22;23517;50.390;8.616;2024-03-08T11:47:15;10.10;1.00
37678;DHT22;23517;50.390;8.616;2024-03-08T11:49:42;10.10;99.90
37678;DHT22;23517;50.390;8.616;2024-03-08T11:52:12;10.10;1.00
37678;DHT22;23517;50.390;8.616;2024-03-08T11:54:52;10.10;1.00
37678;DHT22;23517;50.390;8.616;2024-03-08T11:57:24;10.00;1.00
37678;DHT22;23517;50.390;8.616;2024-03-08T11:59:54;9.60;1.00
37678;DHT22;23517;50.390;8.616;2024-03-08T12:02:24;9.60;1.00
37678;DHT22;23517;50.390;8.616;2024-03-08T12:04:59;9.60;1.00
37678;DHT22;23517;50.390;8.616;2024-03-08T12:07:27;9.60;1.00
37678;DHT22;23517;50.390;8.616;2024-03-08T12:10:18;9.70;1.00
37678;DHT22;23517;50.390;8.616;2024-03-08T12:12:47;9.60;1.00
37678;DHT22;23517;50.390;8.616;2024-03-08T12:15:22;9.70;1.00
37678;DHT22;23517;50.390;8.616;2024-03-08T12:17:51;9.70;1.00
37678;DHT22;23517;50.390;8.616;2024-03-08T12:20:24;9.70;1.00
37678;DHT22;23517;50.390;8.616;2024-03-08T12:22:55;9.60;1.00
37678;DHT22;23517;50.390;8.616;2024-03-08T12:25:30;9.50;1.00
37678;DHT22;23517;50.390;8.616;2024-03-08T12:28:09;9.50;1.00
37678;DHT22;23517;50.390;8.616;2024-03-08T12:30:47;9.50;1.00
37678;DHT22;23517;50.390;8.616;2024-03-08T12:33:19;9.50;1.00
37678;DHT22;23517;50.390;8.616;2024-03-08T12:35:53;9.60;1.00
37678;DHT22;23517;50.390;8.616;2024-03-08T12:38:22;9.70;1.00
37678;DHT22;23517;50.390;8.616;2024-03-08T12:40:55;9.60;1.00
37678;DHT22;23517;50.390;8.616;2024-03-08T12:43:23;9.60;1.00
37678;DHT22;23517;50.390;8.616;2024-03-08T12:45:50;9.70;1.00
37678;DHT22;23517;50.390;8.616;2024-03-08T12:48:18;9.60;1.00
37678;DHT22;23517;50.390;8.616;2024-03-08T12:50:45;9.60;1.00
37678;DHT22;23517;50.390;8.616;2024-03-08T12:53:14;9.70;1.00
37678;DHT22;23517;50.390;8.616;2024-03-08T12:55:41;9.70;1.00
37678;DHT22;23517;50.390;8.616;2024-03-08T12:58:08;9.70;1.00
37678;DHT22;23517;50.390;8.616;2024-03-08T13:00:35;9.70;1.00
37678;DHT22;23517;50.390;8.616;2024-03-08T13:03:09;9.70;1.00
37678;DHT22;23517;50.390;8.616;2024-03-08T13:05:38;9.70;1.00
37678;DHT22;23517;50.390;8.616;2024-03-08T13:08:07;9.80;1.00
37678;DHT22;23517;50.390;8.616;2024-03-08T13:10:42;9.80;1.00
37678;DHT22;23517;50.390;8.616;2024-03-08T13:13:11;10.00;1.00
37678;DHT22;23517;50.390;8.616;2024-03-08T13:15:44;10.00;1.00
37678;DHT22;23517;50.390;8.616;2024-03-08T13:18:11;9.90;1.00
37678;DHT22;23517;50.390;8.616;2024-03-08T13:20:38;9.90;1.00
37678;DHT22;23517;50.390;8.616;2024-03-08T13:23:13;9.90;1.00
37678;DHT22;23517;50.390;8.616;2024-03-08T13:25:40;10.00;1.00
37678;DHT22;23517;50.390;8.616;2024-03-08T13:28:08;9.90;1.00
37678;DHT22;23517;50.390;8.616;2024-03-08T13:30:35;9.90;1.00
37678;DHT22;23517;50.390;8.616;2024-03-08T13:33:02;9.80;1.00
37678;DHT22;23517;50.390;8.616;2024-03-08T13:35:32;9.90;1.00
37678;DHT22;23517;50.390;8.616;2024-03-08T13:37:59;10.00;1.00
37678;DHT22;23517;50.390;8.616;2024-03-08T13:40:26;10.10;1.00
37678;DHT22;23517;50.390;8.616;2024-03-08T13:42:53;10.10;1.00
37678;DHT22;23517;50.390;8.616;2024-03-08T13:45:20;10.10;1.00
37678;DHT22;23517;50.390;8.616;2024-03-08T13:47:52;10.20;1.00
37678;DHT22;23517;50.390;8.616;2024-03-08T13:50:20;10.20;1.00
37678;DHT22;23517;50.390;8.616;2024-03-08T13:52:52;10.20;1.00
37678;DHT22;23517;50.390;8.616;2024-03-08T13:55:22;10.20;1.00
37678;DHT22;23517;50.390;8.616;2024-03-08T13:57:52;10.10;1.00
37678;DHT22;23517;50.390;8.616;2024-03-08T14:00:19;10.20;1.00
37678;DHT22;23517;50.390;8.616;2024-03-08T14:02:52;10.20;1.00
37678;DHT22;23517;50.390;8.616;2024-03-08T14:05:20;10.20;1.00
37678;DHT22;23517;50.390;8.616;2024-03-08T14:07:47;10.10;1.00
37678;DHT22;23517;50.390;8.616;2024-03-08T14:10:16;10.20;1.00
37678;DHT22;23517;50.390;8.616;2024-03-08T14:12:46;10.20;1.00
37678;DHT22;23517;50.390;8.616;2024-03-08T14:15:16;10.20;1.00
37678;DHT22;23517;50.390;8.616;2024-03-08T14:17:43;10.10;1.00
37678;DHT22;23517;50.390;8.616;2024-03-08T14:20:13;10.10;1.00
37678;DHT22;23517;50.390;8.616;2024-03-08T14:22:40;10.20;1.00
37678;DHT22;23517;50.390;8.616;2024-03-08T14:25:07;10.20;1.00
37678;DHT22;23517;50.390;8.616;2024-03-08T14:27:46;10.20;1.00
37678;DHT22;23517;50.390;8.616;2024-03-08T14:30:13;10.10;1.00
37678;DHT22;23517;50.390;8.616;2024-03-08T14:32:58;10.20;1.00
37678;DHT22;23517;50.390;8.616;2024-03-08T14:35:29;10.10;1.00
37678;DHT22;23517;50.390;8.616;2024-03-08T14:37:56;10.10;1.00
37678;DHT22;23517;50.390;8.616;2024-03-08T14:40:25;10.10;1.00
37678;DHT22;23517;50.390;8.616;2024-03-08T14:42:52;10.10;1.00
37678;DHT22;23517;50.390;8.616;2024-03-08T14:45:19;10.00;1.00
37678;DHT22;23517;50.390;8.616;2024-03-08T14:47:47;10.10;1.00
37678;DHT22;23517;50.390;8.616;2024-03-08T14:50:18;10.00;1.00
37678;DHT22;23517;50.390;8.616;2024-03-08T14:52:45;10.00;1.00
37678;DHT22;23517;50.390;8.616;2024-03-08T14:55:15;10.00;1.00
37678;DHT22;23517;50.390;8.616;2024-03-08T14:57:43;10.10;1.00
37678;DHT22;23517;50.390;8.616;2024-03-08T15:00:13;10.00;1.00
37678;DHT22;23517;50.390;8.616;2024-03-08T15:02:45;10.00;1.00
37678;DHT22;23517;50.390;8.616;2024-03-08T15:05:13;10.00;1.00
37678;DHT22;23517;50.390;8.616;2024-03-08T15:07:40;10.00;1.00
37678;DHT22;23517;50.390;8.616;2024-03-08T15:10:09;10.00;1.00
37678;DHT22;23517;50.390;8.616;2024-03-08T15:12:44;10.00;1.00
37678;DHT22;23517;50.390;8.616;2024-03-08T15:15:17;10.00;1.00
37678;DHT22;23517;50.390;8.616;2024-03-08T15:17:45;10.00;1.00
37678;DHT22;23517;50.390;8.616;2024-03-08T15:20:13;10.00;1.00
37678;DHT22;23517;50.390;8.616;2024-03-08T15:22:54;10.00;1.00
37678;DHT22;23517;50.390;8.616;2024-03-08T15:25:24;10.00;1.00
37678;DHT22;23517;50.390;8.616;2024-03-08T15:27:55;10.00;1.00
37678;DHT22;23517;50.390;8.616;2024-03-08T15:30:22;10.00;1.00
37678;DHT22;23517;50.390;8.616;2024-03-08T15:32:52;10.00;1.00
37678;DHT22;23517;50.390;8.616;2024-03-08T15:35:28;10.00;1.00
37678;DHT22;23517;50.390;8.616;2024-03-08T15:37:55;10.00;1.00
37678;DHT22;23517;50.390;8.616;2024-03-08T15:40:24;10.00;1.00
37678;DHT22;23517;50.390;8.616;2024-03-08T15:45:18;9.90;1.00
37678;DHT22;23517;50.390;8.616;2024-03-08T15:47:45;9.90;1.00
37678;DHT22;23517;50.390;8.616;2024-03-08T15:50:12;9.90;1.00
37678;DHT22;23517;50.390;8.616;2024-03-08T15:52:38;9.80;1.00
37678;DHT22;23517;50.390;8.616;2024-03-08T15:55:08;9.80;1.00
37678;DHT22;23517;50.390;8.616;2024-03-08T15:57:35;9.80;1.00
37678;DHT22;23517;50.390;8.616;2024-03-08T16:00:03;9.80;1.00
37678;DHT22;23517;50.390;8.616;2024-03-08T16:02:40;9.70;1.00
37678;DHT22;23517;50.390;8.616;2024-03-08T16:05:07;9.70;1.00
37678;DHT22;23517;50.390;8.616;2024-03-08T16:07:36;9.70;1.00
37678;DHT22;23517;50.390;8.616;2024-03-08T16:10:03;9.60;1.00